Center Hill Observed Data For Previous 48 Hours

Caption
Day and Hour Reservoir Elevation (behind dam)* Tailwater Elevation (below dam)* Average Hourly Discharge*
3/18/2019 1 AM CDT 659.89 493.59 20,950
3/18/2019 2 AM CDT 659.83 493.43 20,870
3/18/2019 3 AM CDT 659.76 493.46 20,830
3/18/2019 4 AM CDT 659.70 493.40 20,795
3/18/2019 5 AM CDT 659.63 493.43 20,734
3/18/2019 6 AM CDT 659.56 493.36 20,745
3/18/2019 7 AM CDT 659.50 493.30 20,656
3/18/2019 8 AM CDT 659.43 493.33 20,640
3/18/2019 9 AM CDT 659.36 493.76 22,672
3/18/2019 10 AM CDT 659.29 493.89 22,672
3/18/2019 11 AM CDT 659.21 493.91 22,583
3/18/2019 12 PM CDT 659.14 493.94 22,505
3/18/2019 1 PM CDT 659.07 493.97 22,505
3/18/2019 2 PM CDT 658.99 493.99 22,335
3/18/2019 3 PM CDT 658.92 494.02 22,317
3/18/2019 4 PM CDT 658.85 494.05 22,243
3/18/2019 5 PM CDT 658.77 494.07 22,165
3/18/2019 6 PM CDT 658.70 493.90 22,133
3/18/2019 7 PM CDT 658.62 493.92 22,055
3/18/2019 8 PM CDT 658.56 493.86 22,005
3/18/2019 9 PM CDT 658.49 493.79 21,935
3/18/2019 10 PM CDT 658.41 493.81 21,865
3/18/2019 11 PM CDT 658.34 493.84 21,795
3/19/2019 12 AM CDT 658.27 493.77 21,725
3/19/2019 1 AM CDT 658.20 493.70 21,597
3/19/2019 2 AM CDT 658.13 493.67 21,575
3/19/2019 3 AM CDT 658.07 493.67 21,575
3/19/2019 4 AM CDT 657.99 493.59 21,475
3/19/2019 5 AM CDT 657.92 493.62 21,375
3/19/2019 6 AM CDT 657.85 493.45 21,275
3/19/2019 7 AM CDT 657.78 493.48 21,275
3/19/2019 8 AM CDT 657.71 493.41 21,175
3/19/2019 9 AM CDT 657.63 493.33 21,145
3/19/2019 10 AM CDT 657.56 493.36 21,079
3/19/2019 11 AM CDT 657.49 493.19 21,050
3/19/2019 12 PM CDT 657.42 493.22 20,889
3/19/2019 1 PM CDT 657.36 493.16 20,895
3/19/2019 2 PM CDT 657.29 493.09 20,799
3/19/2019 3 PM CDT 657.22 493.12 20,775
3/19/2019 4 PM CDT 657.15 493.05 20,639
3/19/2019 5 PM CDT 657.08 492.98 20,655
3/19/2019 6 PM CDT 657.01 492.91 20,489
3/19/2019 7 PM CDT 656.94 492.84 20,505
3/19/2019 8 PM CDT 656.87 492.77 20,389
3/19/2019 9 PM CDT 656.80 492.80 20,355
3/19/2019 10 PM CDT 656.73 492.73 20,245
3/19/2019 11 PM CDT 656.67 492.67 20,155
3/20/2019 12 AM CDT 656.60 492.70 19,939
3/20/2019 1 AM CDT 656.53 492.53 19,969
3/20/2019 2 AM CDT 656.46 492.46 19,909
3/20/2019 3 AM CDT 656.40 492.50 19,925
3/20/2019 4 AM CDT 656.33 492.43 19,749
3/20/2019 5 AM CDT 656.27 492.37 19,689
3/20/2019 6 AM CDT 656.21 492.31 19,599

Elevations are in feet above sea level. Discharges are in cubic feet per second and are reported at the end of the hour.